Time,TemperatureF,DewpointF,PressureIn,WindDirection,WindDirectionDegrees,WindSpeedMPH,WindSpeedGustMPH,Humidity,HourlyPrecipIn,Conditions,Clouds,dailyrainin,SoftwareType,DateUTC
2013-04-15 00:09:00,61.0,45.0,29.89,South,173,0.0,0.0,57,0.00,,,0.00,weatherlink.com 1.10,2013-04-15 04:09:00,
2013-04-15 00:24:00,60.7,45.0,29.89,South,173,0.0,2.0,56,0.00,,,0.00,weatherlink.com 1.10,2013-04-15 04:24:00,
2013-04-15 00:39:00,60.7,46.0,29.89,South,173,0.0,0.0,58,0.00,,,0.00,weatherlink.com 1.10,2013-04-15 04:39:00,
2013-04-15 00:54:00,60.9,47.0,29.89,South,173,0.0,1.0,60,0.00,,,0.00,weatherlink.com 1.10,2013-04-15 04:54:00,
2013-04-15 01:09:00,60.7,47.0,29.89,South,173,0.0,1.0,60,0.00,,,0.00,weatherlink.com 1.10,2013-04-15 05:09:00,
2013-04-15 01:24:00,60.3,47.0,29.88,South,173,0.0,1.0,61,0.00,,,0.00,weatherlink.com 1.10,2013-04-15 05:24:00,
2013-04-15 01:39:00,60.1,47.0,29.88,South,173,0.0,1.0,63,0.00,,,0.00,weatherlink.com 1.10,2013-04-15 05:39:00,
2013-04-15 01:54:00,59.4,47.0,29.89,South,173,0.0,2.0,64,0.00,,,0.00,weatherlink.com 1.10,2013-04-15 05:54:00,
2013-04-15 02:09:00,58.8,48.0,29.89,SE,142,0.0,3.0,67,0.00,,,0.00,weatherlink.com 1.10,2013-04-15 06:09:00,
2013-04-15 02:24:00,58.3,48.0,29.89,SSW,209,0.0,1.0,68,0.00,,,0.00,weatherlink.com 1.10,2013-04-15 06:24:00,
2013-04-15 02:40:00,57.9,48.0,29.89,South,169,1.0,2.0,70,0.00,,,0.00,weatherlink.com 1.10,2013-04-15 06:40:00,
2013-04-15 02:55:00,58.0,48.0,29.89,SSW,196,0.0,2.0,70,0.00,,,0.00,weatherlink.com 1.10,2013-04-15 06:55:00,
2013-04-15 03:55:00,56.5,49.0,29.89,SSW,213,0.0,0.0,75,0.00,,,0.00,weatherlink.com 1.10,2013-04-15 07:55:00,
2013-04-15 04:10:00,55.9,48.0,29.90,SSW,213,0.0,0.0,76,0.00,,,0.00,weatherlink.com 1.10,2013-04-15 08:10:00,
2013-04-15 04:25:00,55.5,48.0,29.90,SSW,213,0.0,0.0,77,0.00,,,0.00,weatherlink.com 1.10,2013-04-15 08:25:00,
2013-04-15 04:40:00,55.3,49.0,29.90,SSW,213,0.0,0.0,78,0.00,,,0.00,weatherlink.com 1.10,2013-04-15 08:40:00,
2013-04-15 04:55:00,55.0,48.0,29.91,SSW,213,0.0,0.0,78,0.00,,,0.00,weatherlink.com 1.10,2013-04-15 08:55:00,
2013-04-15 05:10:00,55.1,48.0,29.91,SSW,213,0.0,1.0,78,0.00,,,0.00,weatherlink.com 1.10,2013-04-15 09:10:00,
2013-04-15 05:25:00,55.3,49.0,29.92,SSW,213,0.0,0.0,78,0.00,,,0.00,weatherlink.com 1.10,2013-04-15 09:25:00,
2013-04-15 05:40:00,55.8,49.0,29.92,SSW,213,0.0,0.0,78,0.00,,,0.00,weatherlink.com 1.10,2013-04-15 09:40:00,
2013-04-15 05:55:00,56.3,49.0,29.91,SSW,213,0.0,0.0,77,0.00,,,0.00,weatherlink.com 1.10,2013-04-15 09:55:00,
2013-04-15 06:10:00,56.7,49.0,29.92,SSW,213,0.0,1.0,76,0.00,,,0.00,weatherlink.com 1.10,2013-04-15 10:10:00,
2013-04-15 06:25:00,56.9,49.0,29.91,SSW,213,0.0,0.0,76,0.00,,,0.00,weatherlink.com 1.10,2013-04-15 10:25:00,
2013-04-15 06:40:00,57.0,49.0,29.91,SSW,213,0.0,1.0,75,0.00,,,0.00,weatherlink.com 1.10,2013-04-15 10:40:00,
2013-04-15 06:55:00,57.1,50.0,29.92,SW,216,0.0,0.0,76,0.00,,,0.00,weatherlink.com 1.10,2013-04-15 10:55:00,
2013-04-15 07:10:00,57.2,49.0,29.92,SW,216,0.0,1.0,75,0.00,,,0.00,weatherlink.com 1.10,2013-04-15 11:10:00,
2013-04-15 07:25:00,57.2,49.0,29.93,SE,142,0.0,1.0,75,0.00,,,0.00,weatherlink.com 1.10,2013-04-15 11:25:00,
2013-04-15 07:40:00,57.3,50.0,29.93,SE,142,0.0,1.0,76,0.01,,,0.01,weatherlink.com 1.10,2013-04-15 11:40:00,
2013-04-15 07:55:00,57.3,50.0,29.93,South,182,3.0,3.0,76,0.01,,,0.01,weatherlink.com 1.10,2013-04-15 11:55:00,
2013-04-15 08:10:00,57.5,50.0,29.93,SE,144,1.0,3.0,77,0.01,,,0.01,weatherlink.com 1.10,2013-04-15 12:10:00,
2013-04-15 08:25:00,57.8,50.0,29.94,SSW,194,1.0,2.0,76,0.01,,,0.01,weatherlink.com 1.10,2013-04-15 12:25:00,
2013-04-15 08:40:00,58.1,51.0,29.95,South,171,1.0,2.0,77,0.00,,,0.01,weatherlink.com 1.10,2013-04-15 12:40:00,
2013-04-15 08:55:00,58.4,51.0,29.95,SSW,194,0.0,2.0,76,0.00,,,0.01,weatherlink.com 1.10,2013-04-15 12:55:00,
2013-04-15 09:10:00,58.5,51.0,29.94,South,180,0.0,2.0,76,0.00,,,0.01,weatherlink.com 1.10,2013-04-15 13:10:00,
2013-04-15 09:25:00,59.6,51.0,29.95,South,175,1.0,4.0,74,0.00,,,0.01,weatherlink.com 1.10,2013-04-15 13:25:00,
2013-04-15 09:40:00,59.8,51.0,29.96,SSW,199,1.0,4.0,73,0.00,,,0.01,weatherlink.com 1.10,2013-04-15 13:40:00,
2013-04-15 09:55:00,60.3,52.0,29.96,SSW,205,1.0,3.0,73,0.00,,,0.01,weatherlink.com 1.10,2013-04-15 13:55:00,
2013-04-15 10:10:00,60.9,52.0,29.96,SSE,159,1.0,5.0,72,0.00,,,0.01,weatherlink.com 1.10,2013-04-15 14:10:00,
2013-04-15 10:25:00,60.8,52.0,29.95,SSW,198,1.0,4.0,73,0.00,,,0.01,weatherlink.com 1.10,2013-04-15 14:25:00,
2013-04-15 10:40:00,60.8,52.0,29.96,SSW,192,0.0,4.0,73,0.00,,,0.01,weatherlink.com 1.10,2013-04-15 14:40:00,
2013-04-15 10:55:00,60.9,52.0,29.96,South,182,0.0,3.0,73,0.00,,,0.01,weatherlink.com 1.10,2013-04-15 14:55:00,
2013-04-15 11:10:00,61.7,52.0,29.96,SSW,204,1.0,5.0,71,0.00,,,0.01,weatherlink.com 1.10,2013-04-15 15:10:00,
2013-04-15 11:25:00,62.3,53.0,29.96,SSW,211,2.0,3.0,71,0.00,,,0.01,weatherlink.com 1.10,2013-04-15 15:25:00,
2013-04-15 11:40:00,63.0,53.0,29.96,SSW,210,0.0,5.0,70,0.00,,,0.01,weatherlink.com 1.10,2013-04-15 15:40:00,
2013-04-15 11:55:00,63.1,54.0,29.97,SSW,200,0.0,4.0,71,0.00,,,0.01,weatherlink.com 1.10,2013-04-15 15:55:00,
2013-04-15 12:10:00,63.5,54.0,29.97,SE,140,1.0,4.0,70,0.00,,,0.01,weatherlink.com 1.10,2013-04-15 16:10:00,
2013-04-15 12:25:00,63.6,53.0,29.97,South,180,1.0,5.0,69,0.00,,,0.01,weatherlink.com 1.10,2013-04-15 16:25:00,
2013-04-15 12:40:00,64.3,54.0,29.97,SSW,211,3.0,3.0,69,0.00,,,0.01,weatherlink.com 1.10,2013-04-15 16:40:00,
2013-04-15 12:55:00,65.3,54.0,29.97,SW,218,4.0,5.0,67,0.00,,,0.01,weatherlink.com 1.10,2013-04-15 16:55:00,
2013-04-15 13:10:00,65.7,54.0,29.96,SSW,198,0.0,4.0,67,0.00,,,0.01,weatherlink.com 1.10,2013-04-15 17:10:00,
2013-04-15 13:25:00,65.7,54.0,29.96,SSW,209,0.0,5.0,66,0.00,,,0.01,weatherlink.com 1.10,2013-04-15 17:25:00,
2013-04-15 13:40:00,66.1,54.0,29.96,South,176,1.0,2.0,66,0.00,,,0.01,weatherlink.com 1.10,2013-04-15 17:40:00,
2013-04-15 13:55:00,65.3,54.0,29.96,SSE,161,1.0,4.0,66,0.00,,,0.01,weatherlink.com 1.10,2013-04-15 17:55:00,
2013-04-15 14:10:00,65.3,54.0,29.97,SSW,193,1.0,2.0,68,0.00,,,0.01,weatherlink.com 1.10,2013-04-15 18:10:00,
2013-04-15 14:25:00,65.6,54.0,29.97,SSW,198,0.0,5.0,67,0.00,,,0.01,weatherlink.com 1.10,2013-04-15 18:25:00,
2013-04-15 14:40:00,65.6,54.0,29.97,South,177,1.0,4.0,66,0.00,,,0.01,weatherlink.com 1.10,2013-04-15 18:40:00,
2013-04-15 14:55:00,66.1,54.0,29.96,SSW,203,0.0,5.0,65,0.00,,,0.01,weatherlink.com 1.10,2013-04-15 18:55:00,
2013-04-15 15:10:00,66.2,54.0,29.96,SSE,158,2.0,4.0,66,0.00,,,0.01,weatherlink.com 1.10,2013-04-15 19:10:00,
2013-04-15 15:25:00,65.6,54.0,29.95,SSW,206,2.0,5.0,67,0.00,,,0.01,weatherlink.com 1.10,2013-04-15 19:25:00,
2013-04-15 15:40:00,65.3,55.0,29.94,SSE,149,2.0,2.0,69,0.00,,,0.01,weatherlink.com 1.10,2013-04-15 19:40:00,
2013-04-15 16:10:00,66.3,55.0,29.93,South,169,2.0,4.0,67,0.00,,,0.01,weatherlink.com 1.10,2013-04-15 20:10:00,
2013-04-15 16:25:00,67.2,55.0,29.92,SSW,195,0.0,3.0,66,0.00,,,0.01,weatherlink.com 1.10,2013-04-15 20:25:00,
2013-04-15 16:40:00,67.6,55.0,29.93,SSW,205,0.0,5.0,65,0.00,,,0.01,weatherlink.com 1.10,2013-04-15 20:40:00,
2013-04-15 16:55:00,67.7,56.0,29.92,SSW,196,1.0,7.0,66,0.00,,,0.01,weatherlink.com 1.10,2013-04-15 20:55:00,
2013-04-15 17:10:00,68.5,55.0,29.92,SW,219,3.0,7.0,62,0.00,,,0.01,weatherlink.com 1.10,2013-04-15 21:10:00,
2013-04-15 17:25:00,69.2,56.0,29.92,South,190,0.0,6.0,63,0.00,,,0.01,weatherlink.com 1.10,2013-04-15 21:25:00,
2013-04-15 17:40:00,69.6,55.0,29.92,SSW,211,1.0,4.0,61,0.00,,,0.00,weatherlink.com 1.10,2013-04-15 21:40:00,
2013-04-15 17:56:00,69.7,55.0,29.92,South,174,2.0,6.0,60,0.00,,,0.00,weatherlink.com 1.10,2013-04-15 21:56:00,
2013-04-15 18:11:00,69.2,55.0,29.93,SSE,163,2.0,4.0,61,0.00,,,0.00,weatherlink.com 1.10,2013-04-15 22:11:00,
2013-04-15 18:26:00,68.9,54.0,29.92,South,182,1.0,5.0,60,0.00,,,0.00,weatherlink.com 1.10,2013-04-15 22:26:00,
2013-04-15 18:41:00,69.3,54.0,29.93,SSW,211,4.0,5.0,59,0.00,,,0.00,weatherlink.com 1.10,2013-04-15 22:41:00,
2013-04-15 18:56:00,69.1,55.0,29.93,SSE,162,0.0,7.0,61,0.00,,,0.00,weatherlink.com 1.10,2013-04-15 22:56:00,
2013-04-15 19:11:00,68.9,55.0,29.93,SSW,213,2.0,5.0,61,0.00,,,0.00,weatherlink.com 1.10,2013-04-15 23:11:00,
2013-04-15 19:26:00,68.2,55.0,29.93,SSW,205,1.0,4.0,62,0.00,,,0.00,weatherlink.com 1.10,2013-04-15 23:26:00,
2013-04-15 19:41:00,67.5,55.0,29.92,SSW,208,0.0,4.0,64,0.00,,,0.00,weatherlink.com 1.10,2013-04-15 23:41:00,
2013-04-15 20:11:00,65.9,55.0,29.92,SSW,204,0.0,0.0,68,0.00,,,0.00,weatherlink.com 1.10,2013-04-16 00:11:00,
2013-04-15 20:26:00,64.9,55.0,29.92,SSW,204,0.0,1.0,70,0.00,,,0.00,weatherlink.com 1.10,2013-04-16 00:26:00,
2013-04-15 20:41:00,64.1,55.0,29.92,SSW,204,0.0,1.0,71,0.00,,,0.00,weatherlink.com 1.10,2013-04-16 00:41:00,
2013-04-15 20:56:00,63.3,55.0,29.93,SSW,204,0.0,1.0,73,0.00,,,0.00,weatherlink.com 1.10,2013-04-16 00:56:00,
2013-04-15 21:11:00,62.6,55.0,29.93,SSW,204,0.0,0.0,75,0.00,,,0.00,weatherlink.com 1.10,2013-04-16 01:11:00,
2013-04-15 21:26:00,62.0,54.0,29.94,SSW,204,0.0,0.0,76,0.00,,,0.00,weatherlink.com 1.10,2013-04-16 01:26:00,
2013-04-15 21:41:00,61.5,55.0,29.94,SSW,204,0.0,0.0,78,0.00,,,0.00,weatherlink.com 1.10,2013-04-16 01:41:00,
2013-04-15 21:56:00,61.2,54.0,29.94,SSW,204,0.0,0.0,78,0.00,,,0.00,weatherlink.com 1.10,2013-04-16 01:56:00,
2013-04-15 22:11:00,61.0,54.0,29.95,SSW,204,0.0,0.0,79,0.00,,,0.00,weatherlink.com 1.10,2013-04-16 02:11:00,
2013-04-15 22:26:00,60.7,55.0,29.94,SSW,204,0.0,0.0,80,0.00,,,0.00,weatherlink.com 1.10,2013-04-16 02:26:00,
2013-04-15 22:41:00,60.4,54.0,29.94,SSW,204,0.0,0.0,80,0.00,,,0.00,weatherlink.com 1.10,2013-04-16 02:41:00,
2013-04-15 22:56:00,60.8,55.0,29.94,SSW,204,0.0,0.0,80,0.00,,,0.00,weatherlink.com 1.10,2013-04-16 02:56:00,
2013-04-15 23:11:00,61.4,55.0,29.94,SSW,204,0.0,0.0,79,0.00,,,0.00,weatherlink.com 1.10,2013-04-16 03:11:00,
2013-04-15 23:26:00,61.6,55.0,29.94,SSW,204,0.0,0.0,78,0.00,,,0.00,weatherlink.com 1.10,2013-04-16 03:26:00,
2013-04-15 23:41:00,61.4,55.0,29.94,SSW,204,0.0,0.0,78,0.00,,,0.00,weatherlink.com 1.10,2013-04-16 03:41:00,
2013-04-15 23:56:00,60.9,55.0,29.95,SSW,204,0.0,0.0,80,0.00,,,0.00,weatherlink.com 1.10,2013-04-16 03:56:00,